Time;durP1;ratioP1;P1;durP2;ratioP2;P2;SDS_P1;SDS_P2;PMS_P1;PMS_P2;Temp;Humidity;BMP_temperature;BMP_pressure;BME280_temperature;BME280_humidity;BME280_pressure;Samples;Min_cycle;Max_cycle;Signal;HPM_P1;HPM_P2
2022/04/16 00:01:00;;;;;;;14.88;9.45;;;;;;;6.49;74.55;101986.34;4941566;29;20035;-74
2022/04/16 00:03:25;;;;;;;13.48;8.07;;;;;;;6.25;75.18;101982.88;4944491;29;20050;-74
2022/04/16 00:05:53;;;;;;;12.55;8.32;;;;;;;6.17;75.03;101982.63;4942458;29;20051;-74
2022/04/16 00:08:19;;;;;;;10.80;7.78;;;;;;;6.14;75.22;101986.03;4927044;29;20462;-74
2022/04/16 00:10:45;;;;;;;11.52;7.35;;;;;;;6.12;75.10;101986.81;4941862;29;20038;-75
2022/04/16 00:13:11;;;;;;;9.25;6.65;;;;;;;6.04;74.84;101986.53;4945269;29;20040;-74
2022/04/16 00:15:38;;;;;;;9.80;6.18;;;;;;;6.08;75.92;101988.44;4943514;29;20043;-74
2022/04/16 00:18:04;;;;;;;8.90;6.40;;;;;;;6.14;74.66;101991.25;4944247;29;20089;-74
2022/04/16 00:20:31;;;;;;;9.15;5.53;;;;;;;6.09;74.17;102005.06;4948005;29;20159;-74
2022/04/16 00:22:56;;;;;;;9.50;5.88;;;;;;;5.93;74.20;102004.50;4941124;29;20098;-74
2022/04/16 00:25:22;;;;;;;11.23;5.82;;;;;;;5.90;75.42;102004.34;4943171;29;20130;-74
2022/04/16 00:27:47;;;;;;;7.47;4.45;;;;;;;5.73;73.96;102008.06;4942528;29;20395;-75
2022/04/16 00:30:13;;;;;;;6.35;3.75;;;;;;;5.77;73.59;102004.75;4944654;29;20035;-74
2022/04/16 00:32:40;;;;;;;6.40;3.42;;;;;;;5.66;73.32;102008.69;4944406;29;20039;-74
2022/04/16 00:35:07;;;;;;;6.10;3.10;;;;;;;5.64;71.38;102013.88;4942726;29;20031;-74
2022/04/16 00:37:33;;;;;;;7.70;2.78;;;;;;;5.62;71.77;102009.41;4945272;28;20047;-74
2022/04/16 00:39:58;;;;;;;5.70;2.20;;;;;;;5.52;71.70;102016.00;4948303;29;20049;-74
2022/04/16 00:42:24;;;;;;;4.50;2.10;;;;;;;5.48;70.95;102019.38;4947898;29;20050;-75
2022/04/16 00:44:49;;;;;;;4.35;2.10;;;;;;;5.42;71.55;102021.72;4946103;29;20438;-74
2022/04/16 00:47:14;;;;;;;5.55;1.88;;;;;;;5.45;71.15;102016.63;4946507;29;20509;-74
2022/04/16 00:49:40;;;;;;;4.07;1.92;;;;;;;5.53;70.62;102015.19;4947511;29;20046;-74
2022/04/16 00:52:08;;;;;;;5.55;2.08;;;;;;;5.54;69.85;102014.34;4944789;29;20035;-74
2022/04/16 00:54:34;;;;;;;4.43;1.55;;;;;;;5.60;70.08;102011.06;4947349;29;20043;-74
2022/04/16 00:56:59;;;;;;;4.68;1.55;;;;;;;5.66;69.35;102012.19;4946557;29;20031;-74
2022/04/16 00:59:24;;;;;;;3.53;1.60;;;;;;;5.72;68.93;102015.03;4945583;29;20521;-74
2022/04/16 01:01:50;;;;;;;6.60;1.73;;;;;;;5.87;69.25;102022.59;4947523;29;20039;-74
2022/04/16 01:04:15;;;;;;;4.85;1.40;;;;;;;5.87;68.63;102019.97;4945112;29;20084;-74
2022/04/16 01:06:42;;;;;;;4.18;1.38;;;;;;;5.83;68.31;102025.03;4946805;29;20122;-75
2022/04/16 01:09:08;;;;;;;6.93;1.88;;;;;;;5.82;68.10;102018.03;4946831;29;20050;-74
2022/04/16 01:11:34;;;;;;;4.32;1.58;;;;;;;5.68;67.81;102026.22;4948119;29;20035;-74
2022/04/16 01:14:00;;;;;;;3.45;1.42;;;;;;;5.49;66.82;102034.22;4949481;29;20053;-74
2022/04/16 01:16:29;;;;;;;4.90;1.65;;;;;;;5.33;67.57;102024.00;4945753;29;20050;-74
2022/04/16 01:18:55;;;;;;;5.40;1.50;;;;;;;5.23;67.98;102034.09;4928197;29;20416;-75
2022/04/16 01:21:20;;;;;;;4.18;1.20;;;;;;;5.18;68.13;102033.03;4946971;29;20181;-74
2022/04/16 01:23:45;;;;;;;3.35;1.35;;;;;;;5.23;68.53;102041.06;4944878;29;20530;-74
2022/04/16 01:26:11;;;;;;;6.35;2.25;;;;;;;5.25;68.51;102037.69;4946568;29;20187;-74
2022/04/16 01:28:36;;;;;;;4.78;1.42;;;;;;;5.27;68.19;102045.59;4946235;29;20123;-74
2022/04/16 01:31:01;;;;;;;5.55;1.50;;;;;;;5.35;67.43;102053.75;4944522;29;20070;-74
2022/04/16 01:33:27;;;;;;;4.13;1.30;;;;;;;5.33;68.06;102064.16;4947243;29;20074;-74
2022/04/16 01:35:53;;;;;;;3.55;1.70;;;;;;;5.16;69.32;102057.34;4944721;29;20059;-74
2022/04/16 01:38:19;;;;;;;5.40;2.17;;;;;;;4.99;70.69;102046.22;4928836;29;20043;-75
2022/04/16 01:40:44;;;;;;;4.28;1.88;;;;;;;4.97;71.13;102058.31;4946679;29;20055;-74
2022/04/16 01:43:09;;;;;;;5.45;2.33;;;;;;;4.91;71.64;102063.31;4946853;29;20043;-74
2022/04/16 01:45:35;;;;;;;5.53;1.85;;;;;;;4.83;71.99;102061.25;4947128;29;20047;-74
2022/04/16 01:48:00;;;;;;;5.53;2.03;;;;;;;4.92;72.17;102070.31;4943644;29;20049;-74
2022/04/16 01:50:26;;;;;;;5.35;1.88;;;;;;;4.71;72.31;102067.72;4945318;29;20122;-74
2022/04/16 01:52:52;;;;;;;6.25;1.60;;;;;;;4.63;71.42;102071.72;4946125;29;20482;-74
2022/04/16 01:55:17;;;;;;;5.97;1.60;;;;;;;4.56;69.80;102081.03;4926890;29;20042;-74
2022/04/16 01:57:43;;;;;;;4.72;1.33;;;;;;;4.39;69.63;102073.34;4946393;29;20102;-74
2022/04/16 02:00:12;;;;;;;4.82;1.23;;;;;;;4.36;70.00;102077.53;4945165;29;20039;-75
2022/04/16 02:02:38;;;;;;;3.67;1.25;;;;;;;4.37;70.45;102082.81;4942558;29;20039;-74
2022/04/16 02:05:07;;;;;;;5.53;1.33;;;;;;;4.51;70.11;102078.22;4945079;29;20581;-74
2022/04/16 02:07:33;;;;;;;5.60;1.38;;;;;;;4.57;69.88;102075.84;4948677;29;20086;-74
2022/04/16 02:09:58;;;;;;;3.80;1.30;;;;;;;4.59;69.78;102071.59;4948284;29;20035;-75
2022/04/16 02:12:24;;;;;;;4.93;1.90;;;;;;;4.57;68.70;102073.25;4946118;29;20037;-74
2022/04/16 02:14:49;;;;;;;6.43;1.90;;;;;;;4.41;69.57;102075.16;4943587;29;20040;-75
2022/04/16 02:17:14;;;;;;;5.90;1.50;;;;;;;4.50;69.86;102075.53;4945935;29;20047;-74
2022/04/16 02:19:41;;;;;;;5.07;1.33;;;;;;;4.44;69.90;102070.03;4944784;29;20043;-74
2022/04/16 02:22:07;;;;;;;3.90;1.25;;;;;;;4.54;69.45;102072.22;4943600;29;20039;-74
2022/04/16 02:24:32;;;;;;;5.93;1.58;;;;;;;4.57;68.85;102078.47;4946366;29;20054;-74
2022/04/16 02:26:58;;;;;;;5.70;1.60;;;;;;;4.51;68.28;102082.56;4943659;29;20047;-74
2022/04/16 02:29:23;;;;;;;4.30;1.40;;;;;;;4.44;67.99;102083.13;4928173;29;20039;-74
2022/04/16 02:31:48;;;;;;;3.58;1.40;;;;;;;4.20;68.26;102072.47;4944944;29;20143;-75
2022/04/16 02:34:14;;;;;;;3.72;1.40;;;;;;;4.16;67.84;102074.94;4946838;29;20050;-74
2022/04/16 02:36:43;;;;;;;5.05;1.40;;;;;;;4.01;68.55;102075.97;4943236;29;20095;-74
2022/04/16 02:39:08;;;;;;;4.00;1.20;;;;;;;4.03;68.75;102077.81;4945102;29;20035;-75
2022/04/16 02:41:33;;;;;;;8.23;1.30;;;;;;;3.92;68.58;102085.16;4944566;29;20517;-75
2022/04/16 02:43:59;;;;;;;3.20;1.27;;;;;;;3.99;69.29;102080.25;4943247;29;20090;-74
2022/04/16 02:49:10;;;;;;;8.70;1.70;;;;;;;4.19;69.19;102079.41;4945915;29;20039;-74
2022/04/16 02:51:35;;;;;;;3.72;1.20;;;;;;;4.23;68.61;102086.56;4930005;29;20059;-75
2022/04/16 02:54:00;;;;;;;4.68;1.35;;;;;;;4.23;68.74;102083.06;4944095;29;20044;-75
2022/04/16 02:56:26;;;;;;;3.97;1.10;;;;;;;4.32;69.12;102084.38;4944077;29;20058;-74
2022/04/16 02:58:51;;;;;;;4.32;1.20;;;;;;;4.27;68.26;102091.13;4945079;29;20039;-74
2022/04/16 03:01:17;;;;;;;5.03;1.25;;;;;;;4.27;68.97;102092.81;4942356;29;20039;-75
2022/04/16 03:03:43;;;;;;;5.65;1.58;;;;;;;4.31;68.36;102090.41;4944902;29;20043;-74
2022/04/16 03:06:08;;;;;;;3.50;1.00;;;;;;;4.41;67.91;102101.28;4946458;29;20058;-74
2022/04/16 03:08:34;;;;;;;2.65;0.90;;;;;;;4.43;66.98;102099.59;4943332;29;20077;-75
2022/04/16 03:11:00;;;;;;;4.30;1.38;;;;;;;4.50;67.48;102110.41;4944417;29;20027;-75
2022/04/16 03:13:25;;;;;;;6.20;1.88;;;;;;;4.46;67.77;102107.59;4942911;29;20043;-74
2022/04/16 03:18:34;;;;;;;4.50;1.15;;;;;;;4.51;68.19;102114.81;4945560;29;20050;-75
2022/04/16 03:21:01;;;;;;;7.15;1.17;;;;;;;4.42;67.78;102114.41;4943426;29;20039;-74
2022/04/16 03:23:27;;;;;;;4.75;1.00;;;;;;;4.31;67.38;102107.81;4943091;29;20123;-75
2022/04/16 03:25:53;;;;;;;2.40;0.90;;;;;;;4.35;67.30;102113.25;4954020;28;20035;-75
2022/04/16 03:28:19;;;;;;;4.63;1.10;;;;;;;4.27;66.42;102109.41;4932582;29;20043;-74
2022/04/16 03:30:45;;;;;;;3.72;1.15;;;;;;;4.09;67.03;102114.69;4943934;29;20042;-74
2022/04/16 03:33:11;;;;;;;4.30;1.38;;;;;;;4.03;66.86;102123.97;4942829;29;20067;-75
2022/04/16 03:35:36;;;;;;;3.28;1.00;;;;;;;3.95;66.44;102121.88;4945256;29;20043;-74
2022/04/16 03:38:02;;;;;;;3.38;1.00;;;;;;;3.72;67.16;102125.13;4945196;29;20130;-74
2022/04/16 03:40:27;;;;;;;3.22;1.23;;;;;;;3.73;67.48;102129.56;4951052;29;20027;-75
2022/04/16 03:42:58;;;;;;;2.53;0.85;;;;;;;3.69;68.22;102132.81;4943021;29;20569;-75
2022/04/16 03:45:27;;;;;;;8.93;1.63;;;;;;;3.73;67.94;102140.00;4945124;29;20054;-74
2022/04/16 03:47:54;;;;;;;3.28;1.05;;;;;;;3.91;68.02;102138.25;4946019;29;20035;-75
2022/04/16 03:50:20;;;;;;;4.60;1.08;;;;;;;4.06;67.26;102152.84;4943774;29;20039;-74
2022/04/16 03:52:47;;;;;;;4.25;1.60;;;;;;;4.14;67.29;102148.88;4944623;29;20512;-75
2022/04/16 04:00:43;;;;;;;3.42;1.00;;;;;;;4.22;66.81;102163.19;4944911;29;20050;-74
2022/04/16 04:03:10;;;;;;;3.15;1.20;;;;;;;4.20;66.93;102170.06;4942474;29;20038;-74
2022/04/16 04:05:37;;;;;;;5.28;2.63;;;;;;;4.29;66.66;102175.69;4945384;29;20078;-74
2022/04/16 04:08:06;;;;;;;4.65;1.35;;;;;;;4.32;66.20;102177.56;4944195;29;20043;-75
2022/04/16 04:10:32;;;;;;;3.90;1.20;;;;;;;4.37;66.80;102174.31;4941865;28;20082;-75
2022/04/16 04:12:57;;;;;;;4.78;1.60;;;;;;;4.34;66.61;102179.41;4947563;29;20047;-75
2022/04/16 04:15:23;;;;;;;4.40;1.40;;;;;;;4.34;66.37;102188.97;4947359;29;20047;-74
2022/04/16 04:17:49;;;;;;;6.07;1.23;;;;;;;4.44;66.30;102185.06;4946195;29;20046;-75
2022/04/16 04:20:15;;;;;;;2.65;1.13;;;;;;;4.30;65.80;102187.97;4948609;29;20039;-74
2022/04/16 04:22:40;;;;;;;7.22;1.50;;;;;;;4.34;66.13;102196.81;4945493;29;20044;-75
2022/04/16 04:25:06;;;;;;;4.00;1.25;;;;;;;4.36;66.17;102198.69;4947420;29;20035;-75
2022/04/16 04:27:31;;;;;;;4.05;1.40;;;;;;;4.44;66.25;102201.66;4947635;29;20098;-75
2022/04/16 04:29:56;;;;;;;3.97;1.40;;;;;;;4.42;66.43;102192.84;4945669;29;20050;-75
2022/04/16 04:32:22;;;;;;;6.78;1.63;;;;;;;4.46;66.08;102196.50;4948125;29;20043;-75
2022/04/16 04:34:47;;;;;;;4.55;1.25;;;;;;;4.53;66.36;102203.78;4948418;29;20130;-74
2022/04/16 04:37:12;;;;;;;3.50;0.95;;;;;;;4.59;65.65;102211.91;4946916;29;20035;-74
2022/04/16 04:39:38;;;;;;;3.85;1.30;;;;;;;4.61;65.28;102210.25;4946039;29;20046;-74
2022/04/16 04:42:03;;;;;;;4.07;1.30;;;;;;;4.63;65.62;102220.78;4947822;29;20038;-75
2022/04/16 04:44:29;;;;;;;2.80;1.05;;;;;;;4.70;65.74;102215.91;4945600;29;20040;-75
2022/04/16 04:46:54;;;;;;;2.88;1.25;;;;;;;4.80;65.47;102219.81;4947198;29;20034;-74
2022/04/16 04:49:20;;;;;;;6.43;1.48;;;;;;;4.90;65.81;102226.34;4946628;29;20039;-75
2022/04/16 04:51:45;;;;;;;3.92;1.15;;;;;;;4.96;65.53;102222.28;4948730;29;20050;-75
2022/04/16 04:54:10;;;;;;;4.80;1.50;;;;;;;4.90;65.68;102223.72;4948085;29;20046;-75
2022/04/16 04:56:36;;;;;;;4.80;1.90;;;;;;;4.90;65.53;102242.03;4945639;29;20045;-75
2022/04/16 04:59:03;;;;;;;4.75;1.83;;;;;;;4.95;65.48;102236.22;4946537;29;20031;-75
2022/04/16 05:01:29;;;;;;;3.75;1.25;;;;;;;5.02;65.85;102237.34;4937003;29;20118;-74
2022/04/16 05:03:54;;;;;;;5.32;1.45;;;;;;;5.07;65.69;102237.56;4938500;29;20491;-75
2022/04/16 05:06:19;;;;;;;4.03;1.30;;;;;;;5.13;64.77;102249.16;4945065;29;20081;-74
2022/04/16 05:08:45;;;;;;;3.47;1.42;;;;;;;5.25;65.33;102246.22;4949004;29;20039;-75
2022/04/16 05:11:10;;;;;;;6.45;1.50;;;;;;;5.25;64.40;102254.94;4945703;29;20039;-75
2022/04/16 05:13:36;;;;;;;5.40;1.35;;;;;;;5.21;64.07;102253.03;4947366;29;20046;-75
2022/04/16 05:16:01;;;;;;;3.65;1.30;;;;;;;5.14;64.19;102258.84;4944657;29;20379;-75
2022/04/16 05:18:27;;;;;;;4.57;1.50;;;;;;;5.09;63.05;102255.13;4946966;29;20086;-74
2022/04/16 05:20:52;;;;;;;3.63;1.65;;;;;;;5.06;63.09;102257.59;4945923;29;20122;-74
2022/04/16 05:23:17;;;;;;;3.60;1.40;;;;;;;4.94;62.84;102268.41;4944850;29;20083;-75
2022/04/16 05:25:42;;;;;;;4.35;1.50;;;;;;;4.93;63.04;102270.97;4947559;29;20042;-74
2022/04/16 05:28:09;;;;;;;4.75;1.30;;;;;;;5.09;63.30;102276.06;4944482;29;20040;-74
2022/04/16 05:30:44;;;;;;;4.85;1.95;;;;;;;5.17;63.38;102279.00;4946288;29;20035;-74
2022/04/16 05:34:18;;;;;;;4.22;1.25;;;;;;;5.34;63.87;102282.34;4947075;29;20071;-75
2022/04/16 05:35:57;;;;;;;5.85;1.30;;;;;;;5.34;62.24;102291.09;4947380;29;20047;-75
2022/04/16 05:38:23;;;;;;;5.72;1.45;;;;;;;5.35;61.50;102292.91;4946977;29;20038;-74
2022/04/16 05:40:48;;;;;;;3.20;0.95;;;;;;;5.35;61.31;102294.63;4945412;29;20043;-74
2022/04/16 05:43:13;;;;;;;4.30;1.10;;;;;;;5.35;60.77;102290.28;4945030;29;20039;-75
2022/04/16 05:45:39;;;;;;;3.47;1.05;;;;;;;5.26;60.60;102289.88;4946770;29;20097;-75
2022/04/16 05:48:04;;;;;;;3.78;1.17;;;;;;;5.40;60.95;102295.72;4944066;29;20454;-74
2022/04/16 05:50:30;;;;;;;4.93;1.13;;;;;;;5.53;60.77;102313.75;4946548;29;20506;-75
2022/04/16 05:52:55;;;;;;;3.65;1.30;;;;;;;5.55;59.40;102312.06;4950129;29;20565;-74
2022/04/16 05:55:20;;;;;;;2.65;1.00;;;;;;;5.54;59.12;102312.91;4946904;29;20047;-75
2022/04/16 05:57:46;;;;;;;2.80;1.05;;;;;;;5.51;59.02;102312.78;4949395;29;20036;-75
2022/04/16 06:00:13;;;;;;;4.43;1.50;;;;;;;5.55;59.04;102314.69;4943894;29;20086;-75
2022/04/16 06:02:42;;;;;;;4.82;1.60;;;;;;;5.75;58.97;102314.66;4928236;29;20039;-75
2022/04/16 06:05:08;;;;;;;6.35;1.73;;;;;;;5.84;58.58;102318.56;4946823;29;20414;-75
2022/04/16 06:07:33;;;;;;;3.05;1.45;;;;;;;6.01;58.64;102314.03;4943749;29;20032;-74
2022/04/16 06:09:58;;;;;;;4.57;1.52;;;;;;;6.10;58.53;102324.91;4946476;29;20035;-75
2022/04/16 06:12:26;;;;;;;3.08;1.20;;;;;;;6.10;57.74;102318.75;4944553;29;20028;-75
2022/04/16 06:14:52;;;;;;;4.03;1.63;;;;;;;6.05;57.76;102315.97;4944295;29;20491;-75
2022/04/16 06:17:18;;;;;;;3.55;1.42;;;;;;;6.04;58.02;102319.41;4946437;29;20042;-75
2022/04/16 06:19:43;;;;;;;4.65;1.73;;;;;;;5.96;57.13;102331.31;4943661;29;20491;-74
2022/04/16 06:22:10;;;;;;;3.08;1.45;;;;;;;6.07;57.55;102334.38;4945032;29;20040;-75
2022/04/16 06:24:39;;;;;;;3.08;1.63;;;;;;;6.11;57.78;102318.84;4945477;29;20062;-75
2022/04/16 06:27:05;;;;;;;3.80;1.50;;;;;;;6.24;57.93;102314.09;4943438;29;20407;-75
2022/04/16 06:29:30;;;;;;;3.72;1.73;;;;;;;6.46;57.94;102324.59;4945863;29;20082;-75
2022/04/16 06:31:55;;;;;;;3.25;1.38;;;;;;;6.53;56.81;102310.88;4944143;29;20558;-74
2022/04/16 06:34:23;;;;;;;7.95;2.25;;;;;;;6.63;56.75;102317.38;4946360;28;20043;-75
2022/04/16 06:36:49;;;;;;;3.65;1.58;;;;;;;6.76;56.17;102321.38;4926076;29;20044;-75
2022/04/16 06:39:14;;;;;;;4.47;1.40;;;;;;;6.87;56.15;102316.53;4945926;29;20043;-75
2022/04/16 06:41:39;;;;;;;3.65;1.17;;;;;;;6.97;56.17;102318.66;4943829;29;20079;-75
2022/04/16 06:44:05;;;;;;;3.85;1.30;;;;;;;7.12;55.91;102323.56;4948350;29;20039;-75
2022/04/16 06:46:30;;;;;;;2.92;1.20;;;;;;;7.09;55.74;102320.84;4944664;29;20115;-74
2022/04/16 06:48:55;;;;;;;2.15;1.00;;;;;;;7.15;55.31;102328.94;4945962;29;20045;-75
2022/04/16 06:51:20;;;;;;;5.43;1.45;;;;;;;7.19;55.46;102322.97;4943100;29;20118;-74
2022/04/16 06:53:46;;;;;;;3.50;1.30;;;;;;;7.07;54.97;102325.13;4944676;29;20035;-74
2022/04/16 06:56:11;;;;;;;2.38;1.00;;;;;;;6.96;55.53;102319.47;4944940;29;20168;-75
2022/04/16 06:58:36;;;;;;;4.78;1.27;;;;;;;7.04;55.32;102325.91;4942893;29;20043;-75
2022/04/16 07:01:02;;;;;;;6.13;1.40;;;;;;;7.19;55.20;102325.59;4945438;29;20039;-75
2022/04/16 07:03:27;;;;;;;4.15;1.25;;;;;;;7.17;55.21;102322.00;4943312;29;20103;-75
2022/04/16 07:05:52;;;;;;;4.50;1.30;;;;;;;7.49;56.26;102327.50;4946448;29;20089;-74
2022/04/16 07:08:18;;;;;;;5.20;1.20;;;;;;;7.58;54.85;102326.09;4947520;29;20039;-75
2022/04/16 07:10:43;;;;;;;3.30;1.13;;;;;;;7.77;55.22;102324.13;4942588;29;20036;-75
2022/04/16 07:13:08;;;;;;;3.67;1.17;;;;;;;8.03;54.75;102317.09;4945162;29;20126;-75
2022/04/16 07:15:34;;;;;;;4.32;0.95;;;;;;;8.11;54.09;102323.50;4943334;29;20046;-75
2022/04/16 07:18:00;;;;;;;3.50;1.00;;;;;;;8.05;53.05;102325.94;4943756;29;20039;-75
2022/04/16 07:20:26;;;;;;;1.88;0.70;;;;;;;8.00;53.46;102333.66;4945129;29;20074;-75
2022/04/16 07:22:51;;;;;;;6.30;1.48;;;;;;;8.02;52.94;102331.09;4941904;29;20835;-75
2022/04/16 07:25:16;;;;;;;3.22;1.05;;;;;;;8.21;52.87;102328.22;4944929;29;20050;-75
2022/04/16 07:27:43;;;;;;;3.50;1.05;;;;;;;8.30;53.56;102335.50;4943707;29;20591;-75
2022/04/16 07:30:09;;;;;;;2.70;0.98;;;;;;;8.30;53.17;102336.38;4942947;29;20042;-75
2022/04/16 07:32:34;;;;;;;3.55;0.90;;;;;;;8.22;53.14;102340.50;4944973;29;20082;-76
2022/04/16 07:35:00;;;;;;;4.57;1.33;;;;;;;8.37;52.61;102336.59;4944360;29;20040;-75
2022/04/16 07:37:25;;;;;;;1.83;0.60;;;;;;;8.19;52.72;102343.03;4944134;29;20043;-75
2022/04/16 07:39:50;;;;;;;6.10;2.13;;;;;;;8.16;52.14;102337.69;4944164;29;20039;-75
2022/04/16 07:42:16;;;;;;;3.28;1.15;;;;;;;8.14;52.50;102339.38;4942135;29;20036;-75
2022/04/16 07:44:41;;;;;;;2.88;0.80;;;;;;;8.15;52.52;102350.78;4944235;29;20054;-75
2022/04/16 07:47:07;;;;;;;2.70;0.90;;;;;;;8.37;52.93;102352.38;4944621;29;20046;-75
2022/04/16 07:49:32;;;;;;;3.35;1.42;;;;;;;8.62;52.27;102344.47;4943476;29;20036;-75
2022/04/16 07:51:57;;;;;;;2.50;1.00;;;;;;;8.63;51.75;102347.97;4941330;29;20400;-75
2022/04/16 07:54:22;;;;;;;3.33;1.15;;;;;;;8.65;51.97;102347.19;4945036;29;20430;-75
2022/04/16 07:56:48;;;;;;;4.30;0.90;;;;;;;8.81;51.98;102355.53;4945372;29;20494;-75
2022/04/16 07:59:13;;;;;;;4.60;1.13;;;;;;;9.10;51.81;102353.78;4944113;29;20035;-75
2022/04/16 08:01:38;;;;;;;3.17;0.90;;;;;;;9.18;51.10;102347.88;4943197;29;20502;-75
2022/04/16 08:04:04;;;;;;;1.27;0.73;;;;;;;9.41;51.30;102350.28;4945283;29;20043;-74
2022/04/16 08:06:29;;;;;;;3.85;1.10;;;;;;;9.60;50.64;102355.19;4945461;29;20054;-75
2022/04/16 08:09:01;;;;;;;3.22;0.90;;;;;;;9.48;50.20;102365.38;4942203;29;20050;-76
2022/04/16 08:11:30;;;;;;;4.18;1.23;;;;;;;9.09;49.64;102352.88;4942757;29;20039;-75
2022/04/16 08:13:56;;;;;;;4.03;1.63;;;;;;;9.00;50.71;102365.78;4948129;29;20063;-74
2022/04/16 08:16:22;;;;;;;4.57;1.38;;;;;;;8.97;50.00;102371.84;4946768;29;20082;-75
2022/04/16 08:18:47;;;;;;;3.42;0.95;;;;;;;8.81;50.74;102376.59;4942207;29;20055;-75
2022/04/16 08:21:12;;;;;;;4.78;1.20;;;;;;;8.90;51.01;102377.75;4943271;29;20047;-75
2022/04/16 08:23:44;;;;;;;4.80;1.20;;;;;;;9.09;50.69;102381.84;4942183;29;20043;-75
2022/04/16 08:26:10;;;;;;;1.77;0.80;;;;;;;8.65;51.09;102376.13;4945157;29;20466;-75
2022/04/16 08:28:35;;;;;;;4.05;0.90;;;;;;;8.07;52.93;102384.75;4942643;29;20310;-75
2022/04/16 08:31:01;;;;;;;3.35;1.40;;;;;;;7.76;53.64;102385.41;4943676;29;20497;-74
2022/04/16 08:33:26;;;;;;;5.30;1.13;;;;;;;7.88;53.86;102383.19;4941740;29;20418;-75
2022/04/16 08:35:51;;;;;;;4.20;0.90;;;;;;;8.00;53.51;102382.75;4944506;29;20642;-74
2022/04/16 08:38:17;;;;;;;2.70;1.00;;;;;;;7.90;53.65;102382.41;4942673;29;20046;-74
2022/04/16 08:40:42;;;;;;;4.88;1.08;;;;;;;7.91;53.84;102385.91;4942906;29;20040;-75
2022/04/16 08:43:08;;;;;;;4.45;1.00;;;;;;;8.20;53.71;102376.41;4943892;29;20047;-75
2022/04/16 08:45:36;;;;;;;5.78;1.20;;;;;;;8.60;52.79;102376.84;4945075;29;20047;-74
2022/04/16 08:48:01;;;;;;;3.13;0.90;;;;;;;8.95;52.59;102375.28;4943604;29;20043;-75
2022/04/16 08:50:27;;;;;;;3.63;0.88;;;;;;;9.44;51.72;102379.34;4943405;29;20537;-75
2022/04/16 08:52:53;;;;;;;2.88;1.13;;;;;;;10.03;51.48;102374.78;4924606;29;20028;-75
2022/04/16 08:55:18;;;;;;;3.67;1.10;;;;;;;10.57;49.24;102372.59;4944497;29;20050;-75
2022/04/16 08:57:43;;;;;;;3.85;1.65;;;;;;;10.94;47.26;102364.63;4943498;29;20051;-75
2022/04/16 09:00:13;;;;;;;2.35;0.82;;;;;;;11.21;46.92;102362.53;4946802;29;20090;-75
2022/04/16 09:02:49;;;;;;;3.47;0.80;;;;;;;11.29;46.18;102361.84;4934135;29;20027;-75
2022/04/16 09:05:18;;;;;;;3.92;1.23;;;;;;;11.15;44.51;102373.84;4950871;29;20417;-75
2022/04/16 09:07:55;;;;;;;4.20;0.98;;;;;;;9.96;44.78;102378.09;4934097;29;20042;-75
2022/04/16 09:10:24;;;;;;;2.95;0.90;;;;;;;8.92;47.35;102377.81;4947841;29;20050;-75
2022/04/16 09:12:52;;;;;;;2.60;0.90;;;;;;;8.21;49.81;102375.56;4944894;29;20095;-74
2022/04/16 09:15:18;;;;;;;3.67;1.17;;;;;;;8.34;51.07;102368.97;4948085;29;20075;-75
2022/04/16 09:17:43;;;;;;;2.70;0.93;;;;;;;8.53;50.32;102370.47;4947068;29;20065;-75
2022/04/16 09:20:13;;;;;;;4.43;0.80;;;;;;;8.50;50.25;102384.44;4932269;29;20577;-75
2022/04/16 09:22:40;;;;;;;6.80;1.23;;;;;;;8.58;50.38;102384.66;4947842;29;20474;-75
2022/04/16 09:25:19;;;;;;;3.28;1.05;;;;;;;8.79;48.24;102387.06;4947754;29;20426;-75
2022/04/16 09:27:46;;;;;;;2.45;0.80;;;;;;;9.14;48.37;102379.34;4947116;29;20039;-75
2022/04/16 09:30:23;;;;;;;5.30;0.88;;;;;;;9.54;48.17;102367.31;4947443;29;20039;-75
2022/04/16 09:32:49;;;;;;;2.13;0.90;;;;;;;9.88;47.77;102372.63;4946525;29;20482;-75
2022/04/16 09:35:28;;;;;;;4.65;1.00;;;;;;;10.36;45.66;102378.25;4944407;29;20044;-75
2022/04/16 09:37:55;;;;;;;4.30;1.23;;;;;;;10.68;46.23;102376.34;4944926;29;20036;-75
2022/04/16 09:40:21;;;;;;;2.95;0.82;;;;;;;10.93;47.38;102361.97;4934538;29;20071;-75
2022/04/16 09:42:57;;;;;;;4.75;0.98;;;;;;;11.07;46.31;102371.06;4946455;29;20066;-75
2022/04/16 09:45:23;;;;;;;2.17;0.77;;;;;;;10.50;45.00;102367.13;4947241;29;20074;-75
2022/04/16 09:47:50;;;;;;;3.70;0.80;;;;;;;10.18;46.35;102373.38;4947220;29;20077;-75
2022/04/16 09:50:21;;;;;;;3.35;0.82;;;;;;;9.93;45.84;102371.84;4949021;29;20043;-75
2022/04/16 09:52:52;;;;;;;3.33;0.77;;;;;;;9.92;46.16;102378.88;4946008;29;20039;-75
2022/04/16 09:55:24;;;;;;;4.55;0.98;;;;;;;10.12;46.64;102368.84;4933540;29;20050;-75
2022/04/16 09:57:52;;;;;;;3.47;0.95;;;;;;;10.11;46.15;102367.03;4945630;29;20043;-75
2022/04/16 10:00:18;;;;;;;2.70;0.90;;;;;;;10.18;45.52;102362.81;4944005;29;20035;-75
2022/04/16 10:02:45;;;;;;;2.33;1.13;;;;;;;10.41;47.38;102380.13;4946315;29;20106;-75
2022/04/16 10:05:11;;;;;;;5.15;1.20;;;;;;;9.88;47.02;102384.94;4944915;29;20044;-75
2022/04/16 10:07:37;;;;;;;2.72;1.00;;;;;;;9.31;48.87;102385.13;4944777;29;20090;-75
2022/04/16 10:10:06;;;;;;;2.97;1.05;;;;;;;8.69;50.16;102372.72;4945524;28;20078;-75
2022/04/16 10:15:22;;;;;;;2.75;0.85;;;;;;;8.79;50.56;102389.72;4946509;29;20090;-74
2022/04/16 10:17:50;;;;;;;2.95;1.08;;;;;;;8.86;49.80;102394.31;4945402;29;20130;-75
2022/04/16 10:20:18;;;;;;;4.85;1.17;;;;;;;8.74;49.20;102380.78;4943723;29;20051;-75
2022/04/16 10:22:54;;;;;;;2.88;1.08;;;;;;;8.79;50.36;102373.91;4929376;29;20066;-75
2022/04/16 10:25:34;;;;;;;2.85;0.93;;;;;;;8.68;49.78;102389.38;4943904;29;20096;-75
2022/04/16 10:28:04;;;;;;;3.72;1.00;;;;;;;8.55;51.99;102380.19;4946373;29;20402;-75
2022/04/16 10:30:39;;;;;;;5.55;1.02;;;;;;;8.91;50.93;102373.41;4946372;29;20494;-74
2022/04/16 10:33:19;;;;;;;3.58;0.88;;;;;;;9.32;48.83;102376.34;4943608;29;20032;-75
2022/04/16 10:36:02;;;;;;;3.60;1.10;;;;;;;9.22;49.50;102375.19;4932720;29;20035;-75
2022/04/16 10:38:41;;;;;;;2.70;0.90;;;;;;;9.19;48.75;102368.06;4946100;29;20050;-75
2022/04/16 10:41:14;;;;;;;2.40;0.75;;;;;;;9.36;48.01;102372.97;4945298;29;20050;-75
2022/04/16 10:43:40;;;;;;;5.18;1.25;;;;;;;9.74;47.87;102365.19;4945900;29;20028;-75
2022/04/16 10:46:07;;;;;;;2.90;0.90;;;;;;;10.07;47.01;102371.34;4927687;29;20062;-75
2022/04/16 10:48:35;;;;;;;3.40;0.90;;;;;;;10.08;46.42;102373.13;4932238;29;20038;-75
2022/04/16 10:51:00;;;;;;;2.00;0.52;;;;;;;9.85;46.82;102369.91;4945651;29;20094;-75
2022/04/16 10:53:32;;;;;;;3.47;0.93;;;;;;;9.76;47.14;102385.47;4943470;29;20024;-75
2022/04/16 10:56:06;;;;;;;3.08;0.90;;;;;;;9.83;47.63;102368.09;4943797;29;20047;-75
2022/04/16 10:58:31;;;;;;;2.67;0.77;;;;;;;9.74;45.51;102375.75;4945837;29;20035;-75
2022/04/16 11:01:06;;;;;;;3.78;0.80;;;;;;;9.63;47.02;102380.72;4943872;29;20066;-74
2022/04/16 11:03:33;;;;;;;3.63;0.95;;;;;;;9.61;47.26;102375.41;4942693;29;20169;-75
2022/04/16 11:06:03;;;;;;;2.65;1.00;;;;;;;9.65;46.90;102377.28;4928040;29;20063;-75
2022/04/16 11:08:29;;;;;;;3.20;1.00;;;;;;;9.65;46.63;102385.19;4934863;29;20054;-75
2022/04/16 11:10:57;;;;;;;4.80;0.93;;;;;;;9.71;46.14;102375.66;4942570;29;20069;-75
2022/04/16 11:13:22;;;;;;;2.83;0.95;;;;;;;9.74;45.87;102366.09;4946529;29;20410;-75
2022/04/16 11:15:49;;;;;;;3.45;1.00;;;;;;;9.92;45.70;102365.69;4944400;29;20090;-75
2022/04/16 11:18:15;;;;;;;3.13;0.88;;;;;;;10.15;45.73;102373.28;4944603;29;20039;-75
2022/04/16 11:20:43;;;;;;;2.80;0.70;;;;;;;10.27;44.43;102368.28;4942234;29;20050;-75
2022/04/16 11:23:11;;;;;;;2.70;0.85;;;;;;;10.45;43.50;102375.81;4944622;29;20043;-75
2022/04/16 11:34:20;;;;;;;3.83;0.82;;;;;;;11.84;42.64;102368.16;4944638;29;20490;-75
2022/04/16 11:36:52;;;;;;;1.42;0.70;;;;;;;12.36;41.15;102362.88;4945569;29;20491;-75
2022/04/16 11:39:25;;;;;;;;;;;;;;;12.54;40.54;102351.69;4945543;29;20043;-75
2022/04/16 11:41:55;;;;;;;2.55;1.00;;;;;;;12.34;40.29;102366.38;4943100;29;19939;-75
2022/04/16 11:44:40;;;;;;;4.25;0.90;;;;;;;12.40;41.84;102359.41;4944438;29;20122;-75
2022/04/16 11:47:18;;;;;;;3.42;1.02;;;;;;;12.61;39.71;102350.03;4945088;29;20506;-75
2022/04/16 11:49:46;;;;;;;1.95;0.73;;;;;;;12.69;40.89;102354.56;4945098;29;20183;-75
2022/04/16 11:52:13;;;;;;;2.80;1.05;;;;;;;12.46;39.50;102354.22;4944093;29;20035;-75